Time;durP1;ratioP1;P1;durP2;ratioP2;P2;SDS_P1;SDS_P2;PMS_P1;PMS_P2;Temp;Humidity;BMP_temperature;BMP_pressure;BME280_temperature;BME280_humidity;BME280_pressure;Samples;Min_cycle;Max_cycle;Signal;HPM_P1;HPM_P2
2022/02/15 07:15:17;;;;;;;11.85;8.15;;;;;;;;;;10722913;27;20023;-86
2022/02/15 07:20:28;;;;;;;9.20;6.80;;;;;;;;;;10633331;28;20060;-85
2022/02/15 07:25:31;;;;;;;15.00;7.00;;;;;;;;;;10615764;28;20118;-85
2022/02/15 07:30:35;;;;;;;13.25;6.72;;;;;;;;;;10692896;27;20050;-85
2022/02/15 07:41:28;;;;;;;17.23;9.80;;;;;;;;;;10719372;27;20027;-85
2022/02/15 07:46:44;;;;;;;12.00;7.47;;;;;;;;;;10715656;27;20037;-85
2022/02/15 07:51:45;;;;;;;10.63;6.28;;;;;;;;;;10715620;27;20029;-85
2022/02/15 07:57:00;;;;;;;18.33;7.95;;;;;;;;;;10719538;27;20027;-86
2022/02/15 08:02:03;;;;;;;13.88;5.68;;;;;;;;;;10717174;27;20019;-84
2022/02/15 08:07:10;;;;;;;13.57;5.90;;;;;;;;;;10720100;27;20491;-81
2022/02/15 08:12:17;;;;;;;9.57;5.38;;;;;;;;;;10708010;27;20436;-83
2022/02/15 08:17:18;;;;;;;10.32;5.72;;;;;;;;;;10701903;27;20027;-82
2022/02/15 08:22:21;;;;;;;8.25;6.10;;;;;;;;;;10686287;27;20608;-82
2022/02/15 08:27:22;;;;;;;18.60;6.82;;;;;;;;;;10685739;27;20027;-82
2022/02/15 08:32:23;;;;;;;10.77;6.28;;;;;;;;;;10691913;27;20061;-82
2022/02/15 08:37:24;;;;;;;10.90;6.20;;;;;;;;;;10691723;27;20441;-82
2022/02/15 08:42:25;;;;;;;9.07;6.15;;;;;;;;;;10688615;27;20395;-83
2022/02/15 08:47:27;;;;;;;9.98;6.28;;;;;;;;;;10710793;27;20056;-81
2022/02/15 08:52:28;;;;;;;10.98;6.75;;;;;;;;;;10690043;27;20026;-82
2022/02/15 08:57:28;;;;;;;9.65;6.40;;;;;;;;;;10681824;27;20029;-82
2022/02/15 09:02:30;;;;;;;11.27;7.78;;;;;;;;;;10689937;27;20086;-81
2022/02/15 09:07:31;;;;;;;11.02;7.20;;;;;;;;;;10685009;27;20400;-81
2022/02/15 09:12:32;;;;;;;8.60;6.22;;;;;;;;;;10688324;27;20018;-82
2022/02/15 09:17:37;;;;;;;11.93;8.82;;;;;;;;;;10685939;27;20118;-81
2022/02/15 09:22:39;;;;;;;13.48;8.27;;;;;;;;;;10685368;27;20369;-82
2022/02/15 09:27:40;;;;;;;8.10;4.72;;;;;;;;;;10686218;27;20033;-81
2022/02/15 09:32:41;;;;;;;;;;;;;;;;;;10688094;27;20464;-82
2022/02/15 09:37:42;;;;;;;11.35;6.30;;;;;;;;;;10668517;27;19903;-83
2022/02/15 09:42:44;;;;;;;9.63;6.28;;;;;;;;;;10692888;27;20048;-82
2022/02/15 09:47:46;;;;;;;9.18;4.93;;;;;;;;;;10691939;27;20317;-83
2022/02/15 09:52:47;;;;;;;10.75;7.78;;;;;;;;;;10690703;27;20023;-83
2022/02/15 09:57:48;;;;;;;;;;;;;;;;;;10688325;27;20030;-82
2022/02/15 10:02:49;;;;;;;11.10;6.32;;;;;;;;;;10685534;27;19903;-82
2022/02/15 10:07:53;;;;;;;20.90;7.90;;;;;;;;;;10684118;27;20027;-81
2022/02/15 10:12:58;;;;;;;24.50;7.97;;;;;;;;;;10685267;27;20030;-82
2022/02/15 10:18:12;;;;;;;20.58;6.55;;;;;;;;;;10689779;27;20046;-81
2022/02/15 10:23:21;;;;;;;13.65;7.70;;;;;;;;;;10718592;27;20018;-79
2022/02/15 10:28:26;;;;;;;14.38;5.68;;;;;;;;;;10714719;27;20035;-82
2022/02/15 10:33:31;;;;;;;11.70;7.95;;;;;;;;;;10709397;27;20029;-82
2022/02/15 10:38:36;;;;;;;13.77;7.70;;;;;;;;;;10706154;27;20018;-84
2022/02/15 10:43:42;;;;;;;9.73;7.80;;;;;;;;;;10691052;27;20033;-83
2022/02/15 10:48:43;;;;;;;10.48;7.18;;;;;;;;;;10692596;27;20035;-82
2022/02/15 10:53:44;;;;;;;11.70;5.97;;;;;;;;;;10715669;27;20061;-82
2022/02/15 10:58:49;;;;;;;7.72;4.18;;;;;;;;;;10692964;27;20029;-82
2022/02/15 11:03:51;;;;;;;9.13;4.43;;;;;;;;;;10687543;27;20118;-83
2022/02/15 11:08:53;;;;;;;75.70;9.77;;;;;;;;;;10689061;27;20038;-81
2022/02/15 11:13:55;;;;;;;51.67;8.23;;;;;;;;;;10685105;27;20038;-81
2022/02/15 11:18:56;;;;;;;28.88;5.93;;;;;;;;;;10687058;27;20023;-82
2022/02/15 11:24:00;;;;;;;;;;;;;;;;;;10689920;27;20031;-80
2022/02/15 11:29:01;;;;;;;8.75;4.35;;;;;;;;;;10670916;27;19913;-81
2022/02/15 11:34:07;;;;;;;9.02;5.05;;;;;;;;;;10685389;27;20019;-81
2022/02/15 11:39:11;;;;;;;21.27;7.25;;;;;;;;;;10685439;27;20050;-82
2022/02/15 11:44:14;;;;;;;28.65;7.10;;;;;;;;;;10684529;27;20026;-83
2022/02/15 11:49:16;;;;;;;27.30;6.78;;;;;;;;;;10684442;27;20063;-79
2022/02/15 11:54:21;;;;;;;17.35;5.90;;;;;;;;;;10689018;27;20026;-82
2022/02/15 11:59:24;;;;;;;16.33;4.50;;;;;;;;;;10692638;27;20053;-84
2022/02/15 12:04:27;;;;;;;15.88;4.75;;;;;;;;;;10698238;27;20030;-83
2022/02/15 12:09:29;;;;;;;22.48;4.55;;;;;;;;;;10695866;27;20042;-83
2022/02/15 12:14:30;;;;;;;14.27;4.03;;;;;;;;;;10700858;27;20047;-83
2022/02/15 12:19:31;;;;;;;;;;;;;;;;;;10701320;27;20090;-83
2022/02/15 12:24:33;;;;;;;17.67;4.30;;;;;;;;;;10682929;27;20342;-83
2022/02/15 12:29:34;;;;;;;17.00;6.32;;;;;;;;;;10689858;27;20066;-84
2022/02/15 12:34:35;;;;;;;15.93;5.40;;;;;;;;;;10693199;27;20085;-83
2022/02/15 12:39:36;;;;;;;;;;;;;;;;;;10687766;27;20030;-82
2022/02/15 12:44:39;;;;;;;8.25;3.40;;;;;;;;;;10688622;27;19929;-82
2022/02/15 12:49:40;;;;;;;10.45;3.30;;;;;;;;;;10688318;27;20026;-81
2022/02/15 12:54:41;;;;;;;;;;;;;;;;;;10686072;27;20113;-80
2022/02/15 12:59:42;;;;;;;21.45;3.50;;;;;;;;;;10685875;27;19903;-80
2022/02/15 13:04:48;;;;;;;8.07;2.30;;;;;;;;;;10683308;27;20045;-82
2022/02/15 13:09:50;;;;;;;8.82;2.80;;;;;;;;;;10689203;27;20023;-79
2022/02/15 13:14:54;;;;;;;6.25;2.60;;;;;;;;;;10686284;27;20026;-81
2022/02/15 13:19:55;;;;;;;8.80;2.40;;;;;;;;;;10688471;27;20042;-81
2022/02/15 13:24:55;;;;;;;;;;;;;;;;;;10690800;27;20062;-81
2022/02/15 13:29:57;;;;;;;8.77;2.10;;;;;;;;;;10671015;27;19994;-80
2022/02/15 13:34:58;;;;;;;4.95;1.83;;;;;;;;;;10696029;27;20110;-80
2022/02/15 13:39:59;;;;;;;5.88;1.90;;;;;;;;;;10694425;27;20102;-80
2022/02/15 13:45:01;;;;;;;3.63;1.52;;;;;;;;;;10692229;27;20030;-80
2022/02/15 13:50:02;;;;;;;8.02;2.00;;;;;;;;;;10696550;27;20019;-80
2022/02/15 13:55:03;;;;;;;;;;;;;;;;;;10690255;27;20055;-81
2022/02/15 14:00:05;;;;;;;10.88;2.60;;;;;;;;;;10695234;27;19969;-82
2022/02/15 14:05:08;;;;;;;11.63;2.60;;;;;;;;;;10696228;27;20046;-83
2022/02/15 14:10:09;;;;;;;8.98;2.45;;;;;;;;;;10693467;27;20027;-81
2022/02/15 14:15:11;;;;;;;7.80;2.03;;;;;;;;;;10693709;27;20026;-80
2022/02/15 14:20:13;;;;;;;6.78;2.63;;;;;;;;;;10693843;27;20019;-81
2022/02/15 14:25:15;;;;;;;3.70;1.88;;;;;;;;;;10690389;27;20456;-81
2022/02/15 14:30:18;;;;;;;9.60;1.90;;;;;;;;;;10684326;27;20027;-83
2022/02/15 14:35:19;;;;;;;2.80;1.30;;;;;;;;;;10683898;27;20434;-81
2022/02/15 14:40:21;;;;;;;;;;;;;;;;;;10691824;27;20031;-81
2022/02/15 14:45:23;;;;;;;9.15;1.60;;;;;;;;;;10666320;27;20402;-82
2022/02/15 14:50:24;;;;;;;15.98;2.55;;;;;;;;;;10683444;27;20457;-82
2022/02/15 14:55:25;;;;;;;7.35;1.85;;;;;;;;;;10687346;27;20030;-81
2022/02/15 15:00:26;;;;;;;16.17;4.18;;;;;;;;;;10689807;27;20041;-82
2022/02/15 15:05:28;;;;;;;7.03;1.48;;;;;;;;;;10706351;27;20034;-81
2022/02/15 15:10:29;;;;;;;5.50;1.50;;;;;;;;;;10684108;27;20034;-83
2022/02/15 15:15:30;;;;;;;5.15;1.63;;;;;;;;;;10685114;27;20030;-82
2022/02/15 15:20:31;;;;;;;;;;;;;;;;;;10683261;27;20072;-82
2022/02/15 15:25:33;;;;;;;4.25;1.13;;;;;;;;;;10686424;27;19974;-83
2022/02/15 15:30:34;;;;;;;3.08;1.10;;;;;;;;;;10690840;27;20031;-81
2022/02/15 15:35:35;;;;;;;4.50;1.40;;;;;;;;;;10694100;27;20030;-81
2022/02/15 15:40:38;;;;;;;;;;;;;;;;;;10691296;27;20026;-84
2022/02/15 15:45:39;;;;;;;3.85;1.40;;;;;;;;;;10676567;27;19907;-83
2022/02/15 15:50:40;;;;;;;;;;;;;;;;;;10690523;27;20022;-82
2022/02/15 15:55:41;;;;;;;5.30;1.58;;;;;;;;;;10662778;27;19909;-82
2022/02/15 16:00:42;;;;;;;;;;;;;;;;;;10680833;27;20023;-82
2022/02/15 16:05:43;;;;;;;3.85;1.52;;;;;;;;;;10683052;27;19967;-81
2022/02/15 16:10:44;;;;;;;;;;;;;;;;;;10687224;27;20034;-80
2022/02/15 16:15:45;;;;;;;5.57;1.85;;;;;;;;;;10664358;27;19914;-81
2022/02/15 16:20:46;;;;;;;6.95;2.40;;;;;;;;;;10679398;27;20051;-81
2022/02/15 16:25:47;;;;;;;;;;;;;;;;;;10678829;27;20050;-80
2022/02/15 16:31:07;;;;;;;10.63;5.65;;;;;;;;;;10661062;27;19910;-81
2022/02/15 16:36:08;;;;;;;12.98;7.50;;;;;;;;;;10679744;27;20030;-81
2022/02/15 16:41:09;;;;;;;14.63;9.70;;;;;;;;;;10688061;27;20346;-80
2022/02/15 16:46:11;;;;;;;14.88;9.63;;;;;;;;;;10676673;27;20027;-81
2022/02/15 16:51:13;;;;;;;8.73;3.45;;;;;;;;;;10678744;27;20014;-81
2022/02/15 16:56:14;;;;;;;7.28;2.88;;;;;;;;;;10676582;27;20078;-80
2022/02/15 17:01:15;;;;;;;8.05;5.00;;;;;;;;;;10675451;27;20506;-80
2022/02/15 17:06:16;;;;;;;6.55;3.80;;;;;;;;;;10676167;27;20373;-82
2022/02/15 17:11:19;;;;;;;6.50;3.15;;;;;;;;;;10686516;27;20050;-81
2022/02/15 17:16:21;;;;;;;5.72;3.00;;;;;;;;;;10688999;27;20449;-82
2022/02/15 20:33:51;;;;;;;2.13;1.10;;;;;;;;;;10330132;28;20042;-81
